sensor_id;sensor_type;location;lat;lon;timestamp;temperature;humidity
12446;DHT22;6287;50.984;7.022;2022-08-25T00:01:56;22.10;86.10
12446;DHT22;6287;50.984;7.022;2022-08-25T00:04:25;22.00;86.90
12446;DHT22;6287;50.984;7.022;2022-08-25T00:06:53;22.00;86.40
12446;DHT22;6287;50.984;7.022;2022-08-25T00:09:23;22.00;87.00
12446;DHT22;6287;50.984;7.022;2022-08-25T00:11:54;21.90;86.80
12446;DHT22;6287;50.984;7.022;2022-08-25T00:14:28;21.80;87.30
12446;DHT22;6287;50.984;7.022;2022-08-25T00:16:54;21.70;87.90
12446;DHT22;6287;50.984;7.022;2022-08-25T00:19:24;21.70;88.40
12446;DHT22;6287;50.984;7.022;2022-08-25T00:21:49;21.70;89.10
12446;DHT22;6287;50.984;7.022;2022-08-25T00:24:16;21.60;89.00
12446;DHT22;6287;50.984;7.022;2022-08-25T00:26:48;21.60;89.60
12446;DHT22;6287;50.984;7.022;2022-08-25T00:29:15;21.60;90.20
12446;DHT22;6287;50.984;7.022;2022-08-25T00:31:41;21.50;90.30
12446;DHT22;6287;50.984;7.022;2022-08-25T00:34:11;21.50;90.70
12446;DHT22;6287;50.984;7.022;2022-08-25T00:36:40;21.40;90.80
12446;DHT22;6287;50.984;7.022;2022-08-25T00:39:08;21.30;91.10
12446;DHT22;6287;50.984;7.022;2022-08-25T00:41:38;21.30;91.50
12446;DHT22;6287;50.984;7.022;2022-08-25T00:44:07;21.30;91.90
12446;DHT22;6287;50.984;7.022;2022-08-25T00:46:43;21.20;92.30
12446;DHT22;6287;50.984;7.022;2022-08-25T00:49:17;21.20;92.70
12446;DHT22;6287;50.984;7.022;2022-08-25T00:51:49;21.10;93.00
12446;DHT22;6287;50.984;7.022;2022-08-25T00:54:21;21.00;92.30
12446;DHT22;6287;50.984;7.022;2022-08-25T00:56:48;21.00;92.60
12446;DHT22;6287;50.984;7.022;2022-08-25T00:59:16;21.00;94.20
12446;DHT22;6287;50.984;7.022;2022-08-25T01:01:43;21.00;93.90
12446;DHT22;6287;50.984;7.022;2022-08-25T01:04:08;20.80;94.00
12446;DHT22;6287;50.984;7.022;2022-08-25T01:06:38;20.80;94.30
12446;DHT22;6287;50.984;7.022;2022-08-25T01:09:08;20.80;94.70
12446;DHT22;6287;50.984;7.022;2022-08-25T01:11:34;20.80;94.90
12446;DHT22;6287;50.984;7.022;2022-08-25T01:14:03;20.70;95.00
12446;DHT22;6287;50.984;7.022;2022-08-25T01:16:35;20.70;95.20
12446;DHT22;6287;50.984;7.022;2022-08-25T01:19:02;20.60;95.50
12446;DHT22;6287;50.984;7.022;2022-08-25T01:21:37;20.60;95.80
12446;DHT22;6287;50.984;7.022;2022-08-25T01:24:10;20.50;96.40
12446;DHT22;6287;50.984;7.022;2022-08-25T01:26:39;20.50;96.50
12446;DHT22;6287;50.984;7.022;2022-08-25T01:29:06;20.50;96.70
12446;DHT22;6287;50.984;7.022;2022-08-25T01:34:23;20.40;97.90
12446;DHT22;6287;50.984;7.022;2022-08-25T01:36:53;20.40;98.30
12446;DHT22;6287;50.984;7.022;2022-08-25T01:39:22;20.30;98.30
12446;DHT22;6287;50.984;7.022;2022-08-25T01:44:14;20.20;98.20
12446;DHT22;6287;50.984;7.022;2022-08-25T01:46:42;20.20;99.20
12446;DHT22;6287;50.984;7.022;2022-08-25T01:49:08;20.20;99.70
12446;DHT22;6287;50.984;7.022;2022-08-25T01:51:47;20.20;99.90
12446;DHT22;6287;50.984;7.022;2022-08-25T01:54:15;20.00;99.90
12446;DHT22;6287;50.984;7.022;2022-08-25T01:56:41;20.00;99.90
12446;DHT22;6287;50.984;7.022;2022-08-25T01:59:06;20.00;99.90
12446;DHT22;6287;50.984;7.022;2022-08-25T02:01:32;19.90;99.90
12446;DHT22;6287;50.984;7.022;2022-08-25T02:03:58;19.90;99.90
12446;DHT22;6287;50.984;7.022;2022-08-25T02:06:29;19.90;99.90
12446;DHT22;6287;50.984;7.022;2022-08-25T02:09:06;19.80;99.90
12446;DHT22;6287;50.984;7.022;2022-08-25T02:11:39;19.80;99.90
12446;DHT22;6287;50.984;7.022;2022-08-25T02:14:06;19.70;99.90
12446;DHT22;6287;50.984;7.022;2022-08-25T02:16:35;19.70;99.90
12446;DHT22;6287;50.984;7.022;2022-08-25T02:19:06;19.70;99.90
12446;DHT22;6287;50.984;7.022;2022-08-25T02:21:32;19.70;99.90
12446;DHT22;6287;50.984;7.022;2022-08-25T02:24:00;19.60;99.90
12446;DHT22;6287;50.984;7.022;2022-08-25T02:26:28;19.60;99.90
12446;DHT22;6287;50.984;7.022;2022-08-25T02:28:54;19.50;99.90
12446;DHT22;6287;50.984;7.022;2022-08-25T02:31:23;19.50;99.90
12446;DHT22;6287;50.984;7.022;2022-08-25T02:33:53;19.40;99.90
12446;DHT22;6287;50.984;7.022;2022-08-25T02:36:24;19.40;99.90
12446;DHT22;6287;50.984;7.022;2022-08-25T02:38:53;19.40;99.90
12446;DHT22;6287;50.984;7.022;2022-08-25T02:41:22;19.30;99.90
12446;DHT22;6287;50.984;7.022;2022-08-25T02:43:49;19.20;99.90
12446;DHT22;6287;50.984;7.022;2022-08-25T02:46:17;19.20;99.90
12446;DHT22;6287;50.984;7.022;2022-08-25T02:48:49;19.20;99.90
12446;DHT22;6287;50.984;7.022;2022-08-25T02:51:19;19.20;99.90
12446;DHT22;6287;50.984;7.022;2022-08-25T02:53:45;19.10;99.90
12446;DHT22;6287;50.984;7.022;2022-08-25T02:56:18;19.20;99.90
12446;DHT22;6287;50.984;7.022;2022-08-25T02:58:44;19.10;99.90
12446;DHT22;6287;50.984;7.022;2022-08-25T03:01:11;19.10;99.90
12446;DHT22;6287;50.984;7.022;2022-08-25T03:03:39;19.00;99.90
12446;DHT22;6287;50.984;7.022;2022-08-25T03:06:10;19.00;99.90
12446;DHT22;6287;50.984;7.022;2022-08-25T03:08:37;19.00;99.90
12446;DHT22;6287;50.984;7.022;2022-08-25T03:11:03;19.00;99.90
12446;DHT22;6287;50.984;7.022;2022-08-25T03:13:36;19.00;99.90
12446;DHT22;6287;50.984;7.022;2022-08-25T03:16:06;18.90;99.90
12446;DHT22;6287;50.984;7.022;2022-08-25T03:18:33;18.90;99.90
12446;DHT22;6287;50.984;7.022;2022-08-25T03:20:58;18.90;99.90
12446;DHT22;6287;50.984;7.022;2022-08-25T03:23:26;18.90;99.90
12446;DHT22;6287;50.984;7.022;2022-08-25T03:25:55;18.80;99.90
12446;DHT22;6287;50.984;7.022;2022-08-25T03:28:39;18.80;99.90
12446;DHT22;6287;50.984;7.022;2022-08-25T03:31:07;18.80;99.90
12446;DHT22;6287;50.984;7.022;2022-08-25T03:33:33;18.80;99.90
12446;DHT22;6287;50.984;7.022;2022-08-25T03:36:01;18.70;99.90
12446;DHT22;6287;50.984;7.022;2022-08-25T03:38:29;18.70;99.90
12446;DHT22;6287;50.984;7.022;2022-08-25T03:40:55;18.70;99.90
12446;DHT22;6287;50.984;7.022;2022-08-25T03:43:23;18.60;99.90
12446;DHT22;6287;50.984;7.022;2022-08-25T03:45:51;18.60;99.90
12446;DHT22;6287;50.984;7.022;2022-08-25T03:48:16;18.60;99.90
12446;DHT22;6287;50.984;7.022;2022-08-25T03:50:48;18.60;99.90
12446;DHT22;6287;50.984;7.022;2022-08-25T03:53:19;18.50;99.90
12446;DHT22;6287;50.984;7.022;2022-08-25T03:55:45;18.50;99.90
12446;DHT22;6287;50.984;7.022;2022-08-25T03:58:13;18.50;99.90
12446;DHT22;6287;50.984;7.022;2022-08-25T04:00:39;18.50;99.90
12446;DHT22;6287;50.984;7.022;2022-08-25T04:03:05;18.50;99.90
12446;DHT22;6287;50.984;7.022;2022-08-25T04:05:33;18.50;99.90
12446;DHT22;6287;50.984;7.022;2022-08-25T04:07:59;18.50;99.90
12446;DHT22;6287;50.984;7.022;2022-08-25T04:10:26;18.50;99.90
12446;DHT22;6287;50.984;7.022;2022-08-25T04:12:52;18.40;99.90
12446;DHT22;6287;50.984;7.022;2022-08-25T04:15:20;18.50;99.90
12446;DHT22;6287;50.984;7.022;2022-08-25T04:17:45;18.50;99.90
12446;DHT22;6287;50.984;7.022;2022-08-25T04:20:13;18.40;99.90
12446;DHT22;6287;50.984;7.022;2022-08-25T04:22:41;18.40;99.90
12446;DHT22;6287;50.984;7.022;2022-08-25T04:25:10;18.40;99.90
12446;DHT22;6287;50.984;7.022;2022-08-25T04:27:36;18.30;99.90
12446;DHT22;6287;50.984;7.022;2022-08-25T04:30:04;18.30;99.90
12446;DHT22;6287;50.984;7.022;2022-08-25T04:32:29;18.30;99.90
12446;DHT22;6287;50.984;7.022;2022-08-25T04:34:56;18.30;99.90
12446;DHT22;6287;50.984;7.022;2022-08-25T04:37:24;18.20;99.90
12446;DHT22;6287;50.984;7.022;2022-08-25T04:39:55;18.20;99.90
12446;DHT22;6287;50.984;7.022;2022-08-25T04:42:20;18.20;99.90
12446;DHT22;6287;50.984;7.022;2022-08-25T04:44:46;18.20;99.90
12446;DHT22;6287;50.984;7.022;2022-08-25T04:47:14;18.20;99.90
12446;DHT22;6287;50.984;7.022;2022-08-25T04:49:40;18.20;99.90
12446;DHT22;6287;50.984;7.022;2022-08-25T04:52:05;18.20;99.90
12446;DHT22;6287;50.984;7.022;2022-08-25T04:54:31;18.20;99.90
12446;DHT22;6287;50.984;7.022;2022-08-25T04:56:57;18.20;99.90
12446;DHT22;6287;50.984;7.022;2022-08-25T04:59:26;18.20;99.90
12446;DHT22;6287;50.984;7.022;2022-08-25T05:01:51;18.30;99.90
12446;DHT22;6287;50.984;7.022;2022-08-25T05:04:22;18.20;99.90
12446;DHT22;6287;50.984;7.022;2022-08-25T05:06:50;18.30;99.90
12446;DHT22;6287;50.984;7.022;2022-08-25T05:09:16;18.30;99.90
12446;DHT22;6287;50.984;7.022;2022-08-25T05:11:44;18.30;99.90
12446;DHT22;6287;50.984;7.022;2022-08-25T05:14:09;18.40;99.90
12446;DHT22;6287;50.984;7.022;2022-08-25T05:16:36;18.40;99.90
12446;DHT22;6287;50.984;7.022;2022-08-25T05:19:02;18.50;99.90
12446;DHT22;6287;50.984;7.022;2022-08-25T05:21:30;18.50;99.90
12446;DHT22;6287;50.984;7.022;2022-08-25T05:23:59;18.50;99.90
12446;DHT22;6287;50.984;7.022;2022-08-25T05:26:27;18.60;99.90
12446;DHT22;6287;50.984;7.022;2022-08-25T05:28:55;18.70;99.90
12446;DHT22;6287;50.984;7.022;2022-08-25T05:31:22;18.70;99.90
12446;DHT22;6287;50.984;7.022;2022-08-25T05:33:48;18.80;99.90
12446;DHT22;6287;50.984;7.022;2022-08-25T05:36:16;19.00;99.90
12446;DHT22;6287;50.984;7.022;2022-08-25T05:38:45;19.10;99.90
12446;DHT22;6287;50.984;7.022;2022-08-25T05:41:21;19.10;99.90
12446;DHT22;6287;50.984;7.022;2022-08-25T05:43:53;19.20;99.90
12446;DHT22;6287;50.984;7.022;2022-08-25T05:46:20;19.30;99.90
12446;DHT22;6287;50.984;7.022;2022-08-25T05:48:49;19.40;99.90
12446;DHT22;6287;50.984;7.022;2022-08-25T05:51:17;19.50;99.90
12446;DHT22;6287;50.984;7.022;2022-08-25T05:53:45;19.70;99.90
12446;DHT22;6287;50.984;7.022;2022-08-25T05:56:12;19.70;99.90
12446;DHT22;6287;50.984;7.022;2022-08-25T05:58:41;19.80;99.90
12446;DHT22;6287;50.984;7.022;2022-08-25T06:01:07;19.90;99.90
12446;DHT22;6287;50.984;7.022;2022-08-25T06:03:53;20.00;99.90
12446;DHT22;6287;50.984;7.022;2022-08-25T06:06:20;20.20;99.90
12446;DHT22;6287;50.984;7.022;2022-08-25T06:08:46;20.40;99.90
12446;DHT22;6287;50.984;7.022;2022-08-25T06:11:13;20.30;99.90
12446;DHT22;6287;50.984;7.022;2022-08-25T06:13:43;20.50;99.90
12446;DHT22;6287;50.984;7.022;2022-08-25T06:16:09;20.70;99.90
12446;DHT22;6287;50.984;7.022;2022-08-25T06:18:38;21.00;99.90
12446;DHT22;6287;50.984;7.022;2022-08-25T06:21:13;21.10;99.90
12446;DHT22;6287;50.984;7.022;2022-08-25T06:23:41;21.30;99.90
12446;DHT22;6287;50.984;7.022;2022-08-25T06:26:10;21.40;99.90
12446;DHT22;6287;50.984;7.022;2022-08-25T06:28:39;21.60;99.90
12446;DHT22;6287;50.984;7.022;2022-08-25T06:31:05;21.80;99.90
12446;DHT22;6287;50.984;7.022;2022-08-25T06:33:33;22.10;99.90
12446;DHT22;6287;50.984;7.022;2022-08-25T06:36:00;22.10;99.90
12446;DHT22;6287;50.984;7.022;2022-08-25T06:38:26;22.20;99.90
12446;DHT22;6287;50.984;7.022;2022-08-25T06:40:52;22.40;99.90
12446;DHT22;6287;50.984;7.022;2022-08-25T06:43:19;22.50;99.90
12446;DHT22;6287;50.984;7.022;2022-08-25T06:45:45;22.60;99.90
12446;DHT22;6287;50.984;7.022;2022-08-25T06:48:13;22.80;99.90
12446;DHT22;6287;50.984;7.022;2022-08-25T06:50:39;23.00;99.90
12446;DHT22;6287;50.984;7.022;2022-08-25T06:53:07;23.20;99.90
12446;DHT22;6287;50.984;7.022;2022-08-25T06:55:33;23.30;99.90
12446;DHT22;6287;50.984;7.022;2022-08-25T06:58:00;23.40;99.90
12446;DHT22;6287;50.984;7.022;2022-08-25T07:00:27;23.60;99.90
12446;DHT22;6287;50.984;7.022;2022-08-25T07:02:55;23.80;99.90
12446;DHT22;6287;50.984;7.022;2022-08-25T07:05:21;23.90;99.90
12446;DHT22;6287;50.984;7.022;2022-08-25T07:07:49;24.10;99.70
12446;DHT22;6287;50.984;7.022;2022-08-25T07:10:17;24.10;99.70
12446;DHT22;6287;50.984;7.022;2022-08-25T07:12:43;26.20;99.90
12446;DHT22;6287;50.984;7.022;2022-08-25T07:17:37;24.60;98.90
12446;DHT22;6287;50.984;7.022;2022-08-25T07:20:03;24.80;98.30
12446;DHT22;6287;50.984;7.022;2022-08-25T07:22:29;24.80;98.60
12446;DHT22;6287;50.984;7.022;2022-08-25T07:24:55;25.10;98.50
12446;DHT22;6287;50.984;7.022;2022-08-25T07:27:23;25.20;97.80
12446;DHT22;6287;50.984;7.022;2022-08-25T07:29:52;25.30;97.50
12446;DHT22;6287;50.984;7.022;2022-08-25T07:32:18;25.50;97.40
12446;DHT22;6287;50.984;7.022;2022-08-25T07:34:46;25.60;96.90
12446;DHT22;6287;50.984;7.022;2022-08-25T07:37:30;25.70;96.80
12446;DHT22;6287;50.984;7.022;2022-08-25T07:39:56;25.90;96.50
12446;DHT22;6287;50.984;7.022;2022-08-25T07:42:26;26.10;96.00
12446;DHT22;6287;50.984;7.022;2022-08-25T07:44:52;26.20;95.90
12446;DHT22;6287;50.984;7.022;2022-08-25T07:47:18;26.20;95.20
12446;DHT22;6287;50.984;7.022;2022-08-25T07:49:43;26.30;95.30
12446;DHT22;6287;50.984;7.022;2022-08-25T07:52:09;26.40;95.30
12446;DHT22;6287;50.984;7.022;2022-08-25T07:54:37;26.50;94.60
12446;DHT22;6287;50.984;7.022;2022-08-25T07:57:04;26.60;94.30
12446;DHT22;6287;50.984;7.022;2022-08-25T07:59:32;26.70;94.30
12446;DHT22;6287;50.984;7.022;2022-08-25T08:02:00;26.90;94.10
12446;DHT22;6287;50.984;7.022;2022-08-25T08:04:29;27.10;93.90
12446;DHT22;6287;50.984;7.022;2022-08-25T08:06:54;27.20;93.20
12446;DHT22;6287;50.984;7.022;2022-08-25T08:09:20;27.30;93.20
12446;DHT22;6287;50.984;7.022;2022-08-25T08:11:48;27.50;93.00
12446;DHT22;6287;50.984;7.022;2022-08-25T08:14:16;27.60;92.70
12446;DHT22;6287;50.984;7.022;2022-08-25T08:16:44;27.80;92.60
12446;DHT22;6287;50.984;7.022;2022-08-25T08:19:12;28.00;91.50
12446;DHT22;6287;50.984;7.022;2022-08-25T08:21:38;28.10;91.30
12446;DHT22;6287;50.984;7.022;2022-08-25T08:24:04;28.20;91.20
12446;DHT22;6287;50.984;7.022;2022-08-25T08:26:29;28.30;90.70
12446;DHT22;6287;50.984;7.022;2022-08-25T08:28:58;28.40;90.50
12446;DHT22;6287;50.984;7.022;2022-08-25T08:31:26;28.60;90.30
12446;DHT22;6287;50.984;7.022;2022-08-25T08:33:54;28.70;90.00
12446;DHT22;6287;50.984;7.022;2022-08-25T08:36:21;28.80;90.00
12446;DHT22;6287;50.984;7.022;2022-08-25T08:38:47;28.90;89.90
12446;DHT22;6287;50.984;7.022;2022-08-25T08:41:39;29.00;88.80
12446;DHT22;6287;50.984;7.022;2022-08-25T08:47:26;29.50;86.50
12446;DHT22;6287;50.984;7.022;2022-08-25T08:50:01;29.60;85.80
12446;DHT22;6287;50.984;7.022;2022-08-25T08:52:43;29.70;85.30
12446;DHT22;6287;50.984;7.022;2022-08-25T08:55:38;29.90;85.00
12446;DHT22;6287;50.984;7.022;2022-08-25T08:58:31;30.00;84.80
12446;DHT22;6287;50.984;7.022;2022-08-25T09:00:57;30.20;83.40
12446;DHT22;6287;50.984;7.022;2022-08-25T09:03:34;30.30;82.70
12446;DHT22;6287;50.984;7.022;2022-08-25T09:06:31;30.40;82.90
12446;DHT22;6287;50.984;7.022;2022-08-25T09:09:04;30.60;81.90
12446;DHT22;6287;50.984;7.022;2022-08-25T09:14:25;31.00;80.30
12446;DHT22;6287;50.984;7.022;2022-08-25T09:17:01;31.20;78.50
12446;DHT22;6287;50.984;7.022;2022-08-25T09:30:07;31.50;76.10
12446;DHT22;6287;50.984;7.022;2022-08-25T09:32:42;31.90;75.40
12446;DHT22;6287;50.984;7.022;2022-08-25T09:35:18;32.50;76.10
12446;DHT22;6287;50.984;7.022;2022-08-25T09:38:04;32.10;74.70
12446;DHT22;6287;50.984;7.022;2022-08-25T09:40:33;32.10;74.80
12446;DHT22;6287;50.984;7.022;2022-08-25T09:43:02;32.20;73.80
12446;DHT22;6287;50.984;7.022;2022-08-25T09:45:46;32.40;73.60
12446;DHT22;6287;50.984;7.022;2022-08-25T09:48:31;32.70;69.60
12446;DHT22;6287;50.984;7.022;2022-08-25T09:53:54;32.70;69.80
12446;DHT22;6287;50.984;7.022;2022-08-25T09:56:23;32.80;71.20
12446;DHT22;6287;50.984;7.022;2022-08-25T09:58:49;32.90;70.70
12446;DHT22;6287;50.984;7.022;2022-08-25T10:01:17;32.90;70.70
12446;DHT22;6287;50.984;7.022;2022-08-25T10:06:23;33.00;68.20
12446;DHT22;6287;50.984;7.022;2022-08-25T10:08:57;33.10;69.50
12446;DHT22;6287;50.984;7.022;2022-08-25T10:11:42;33.30;67.40
12446;DHT22;6287;50.984;7.022;2022-08-25T10:14:26;33.50;67.00
12446;DHT22;6287;50.984;7.022;2022-08-25T10:17:29;33.70;65.20
12446;DHT22;6287;50.984;7.022;2022-08-25T10:22:38;34.00;63.30
12446;DHT22;6287;50.984;7.022;2022-08-25T10:25:10;34.00;62.10
12446;DHT22;6287;50.984;7.022;2022-08-25T10:30:07;34.00;62.00
12446;DHT22;6287;50.984;7.022;2022-08-25T10:35:23;34.20;61.70
12446;DHT22;6287;50.984;7.022;2022-08-25T10:40:46;34.50;61.10
12446;DHT22;6287;50.984;7.022;2022-08-25T10:46:01;34.80;60.00
12446;DHT22;6287;50.984;7.022;2022-08-25T11:00:13;34.70;57.90
12446;DHT22;6287;50.984;7.022;2022-08-25T11:02:42;34.80;59.30
12446;DHT22;6287;50.984;7.022;2022-08-25T11:08:35;35.30;57.80
12446;DHT22;6287;50.984;7.022;2022-08-25T11:14:20;36.00;55.50
12446;DHT22;6287;50.984;7.022;2022-08-25T11:16:56;36.00;54.60
12446;DHT22;6287;50.984;7.022;2022-08-25T11:19:42;36.10;53.90
12446;DHT22;6287;50.984;7.022;2022-08-25T11:30:26;36.20;54.40
12446;DHT22;6287;50.984;7.022;2022-08-25T11:32:55;36.50;52.60
12446;DHT22;6287;50.984;7.022;2022-08-25T11:35:40;36.70;50.70
12446;DHT22;6287;50.984;7.022;2022-08-25T11:46:36;36.60;50.30
12446;DHT22;6287;50.984;7.022;2022-08-25T11:51:47;36.70;50.70
12446;DHT22;6287;50.984;7.022;2022-08-25T11:57:01;36.90;49.10
12446;DHT22;6287;50.984;7.022;2022-08-25T12:04:55;37.30;48.50
12446;DHT22;6287;50.984;7.022;2022-08-25T12:07:56;37.30;48.20
12446;DHT22;6287;50.984;7.022;2022-08-25T12:10:56;37.10;48.90
12446;DHT22;6287;50.984;7.022;2022-08-25T12:13:46;36.90;48.10
12446;DHT22;6287;50.984;7.022;2022-08-25T12:27:39;37.80;47.20
12446;DHT22;6287;50.984;7.022;2022-08-25T12:30:42;37.90;47.70
12446;DHT22;6287;50.984;7.022;2022-08-25T12:33:34;38.30;47.20
12446;DHT22;6287;50.984;7.022;2022-08-25T12:36:06;38.60;46.10
12446;DHT22;6287;50.984;7.022;2022-08-25T12:38:50;38.70;46.10
12446;DHT22;6287;50.984;7.022;2022-08-25T12:41:21;38.60;45.50
12446;DHT22;6287;50.984;7.022;2022-08-25T12:43:52;38.50;46.40
12446;DHT22;6287;50.984;7.022;2022-08-25T12:48:56;38.80;44.40
12446;DHT22;6287;50.984;7.022;2022-08-25T12:51:27;38.80;45.70
12446;DHT22;6287;50.984;7.022;2022-08-25T12:56:52;39.20;43.00
12446;DHT22;6287;50.984;7.022;2022-08-25T12:59:35;39.30;43.90
12446;DHT22;6287;50.984;7.022;2022-08-25T13:15:47;41.10;41.40
12446;DHT22;6287;50.984;7.022;2022-08-25T13:18:27;41.60;41.10
12446;DHT22;6287;50.984;7.022;2022-08-25T13:21:19;42.00;38.90
12446;DHT22;6287;50.984;7.022;2022-08-25T13:23:49;42.20;38.60
12446;DHT22;6287;50.984;7.022;2022-08-25T13:26:33;41.90;38.10
12446;DHT22;6287;50.984;7.022;2022-08-25T13:29:18;41.80;38.40
12446;DHT22;6287;50.984;7.022;2022-08-25T13:32:06;42.00;39.30
12446;DHT22;6287;50.984;7.022;2022-08-25T13:34:40;42.30;38.30
12446;DHT22;6287;50.984;7.022;2022-08-25T13:37:14;42.40;37.90
12446;DHT22;6287;50.984;7.022;2022-08-25T13:40:13;42.40;37.70
12446;DHT22;6287;50.984;7.022;2022-08-25T13:42:45;42.20;36.70
12446;DHT22;6287;50.984;7.022;2022-08-25T13:45:16;41.80;37.10
12446;DHT22;6287;50.984;7.022;2022-08-25T13:47:43;41.80;38.10
12446;DHT22;6287;50.984;7.022;2022-08-25T13:52:54;41.80;38.20
12446;DHT22;6287;50.984;7.022;2022-08-25T13:55:32;42.00;37.70
12446;DHT22;6287;50.984;7.022;2022-08-25T13:57:58;42.00;37.60
12446;DHT22;6287;50.984;7.022;2022-08-25T14:00:33;42.00;38.50
12446;DHT22;6287;50.984;7.022;2022-08-25T14:03:03;41.90;37.30
12446;DHT22;6287;50.984;7.022;2022-08-25T14:05:42;41.90;36.80
12446;DHT22;6287;50.984;7.022;2022-08-25T14:08:31;41.60;36.00
12446;DHT22;6287;50.984;7.022;2022-08-25T14:11:33;41.40;36.10
12446;DHT22;6287;50.984;7.022;2022-08-25T14:14:28;41.60;36.00
12446;DHT22;6287;50.984;7.022;2022-08-25T14:17:06;41.90;36.30
12446;DHT22;6287;50.984;7.022;2022-08-25T14:19:34;42.10;35.80
12446;DHT22;6287;50.984;7.022;2022-08-25T14:22:04;42.10;35.80
12446;DHT22;6287;50.984;7.022;2022-08-25T14:24:35;42.30;35.30
12446;DHT22;6287;50.984;7.022;2022-08-25T14:27:01;42.30;35.00
12446;DHT22;6287;50.984;7.022;2022-08-25T14:29:30;42.40;34.70
12446;DHT22;6287;50.984;7.022;2022-08-25T14:31:56;42.50;34.20
12446;DHT22;6287;50.984;7.022;2022-08-25T14:34:33;42.50;33.80
12446;DHT22;6287;50.984;7.022;2022-08-25T14:37:19;42.40;34.70
12446;DHT22;6287;50.984;7.022;2022-08-25T14:39:48;42.60;33.80
12446;DHT22;6287;50.984;7.022;2022-08-25T14:42:13;43.00;34.20
12446;DHT22;6287;50.984;7.022;2022-08-25T14:44:39;43.10;33.30
12446;DHT22;6287;50.984;7.022;2022-08-25T14:47:06;43.10;32.00
12446;DHT22;6287;50.984;7.022;2022-08-25T14:49:35;43.10;32.60
12446;DHT22;6287;50.984;7.022;2022-08-25T14:52:25;43.10;32.90
12446;DHT22;6287;50.984;7.022;2022-08-25T14:54:55;43.20;32.70
12446;DHT22;6287;50.984;7.022;2022-08-25T14:57:28;43.30;32.70
12446;DHT22;6287;50.984;7.022;2022-08-25T14:59:54;43.20;32.50
12446;DHT22;6287;50.984;7.022;2022-08-25T15:02:21;43.30;31.70
12446;DHT22;6287;50.984;7.022;2022-08-25T15:04:58;43.20;31.90
12446;DHT22;6287;50.984;7.022;2022-08-25T15:07:25;43.30;31.10
12446;DHT22;6287;50.984;7.022;2022-08-25T15:10:12;43.30;31.30
12446;DHT22;6287;50.984;7.022;2022-08-25T15:12:38;43.50;31.60
12446;DHT22;6287;50.984;7.022;2022-08-25T15:15:04;43.80;33.00
12446;DHT22;6287;50.984;7.022;2022-08-25T15:17:31;44.00;32.70
12446;DHT22;6287;50.984;7.022;2022-08-25T15:19:56;44.10;31.30
12446;DHT22;6287;50.984;7.022;2022-08-25T15:22:26;43.60;30.60
12446;DHT22;6287;50.984;7.022;2022-08-25T15:24:54;43.30;31.00
12446;DHT22;6287;50.984;7.022;2022-08-25T15:27:20;43.20;30.70
12446;DHT22;6287;50.984;7.022;2022-08-25T15:29:47;43.20;30.40
12446;DHT22;6287;50.984;7.022;2022-08-25T15:32:13;43.30;30.60
12446;DHT22;6287;50.984;7.022;2022-08-25T15:34:39;43.40;30.70
12446;DHT22;6287;50.984;7.022;2022-08-25T15:37:08;43.70;30.60
12446;DHT22;6287;50.984;7.022;2022-08-25T15:39:38;44.10;30.80
12446;DHT22;6287;50.984;7.022;2022-08-25T15:42:10;44.30;29.80
12446;DHT22;6287;50.984;7.022;2022-08-25T15:44:37;44.30;30.80
12446;DHT22;6287;50.984;7.022;2022-08-25T15:47:03;43.60;30.80
12446;DHT22;6287;50.984;7.022;2022-08-25T15:49:29;42.60;31.60
12446;DHT22;6287;50.984;7.022;2022-08-25T15:51:55;41.90;31.90
12446;DHT22;6287;50.984;7.022;2022-08-25T15:54:26;40.90;32.10
12446;DHT22;6287;50.984;7.022;2022-08-25T15:56:55;40.40;32.80
12446;DHT22;6287;50.984;7.022;2022-08-25T15:59:23;39.40;33.60
12446;DHT22;6287;50.984;7.022;2022-08-25T16:01:49;38.60;34.00
12446;DHT22;6287;50.984;7.022;2022-08-25T16:04:18;38.10;35.50
12446;DHT22;6287;50.984;7.022;2022-08-25T16:06:46;37.50;36.10
12446;DHT22;6287;50.984;7.022;2022-08-25T16:09:12;37.00;36.00
12446;DHT22;6287;50.984;7.022;2022-08-25T16:11:38;36.50;36.70
12446;DHT22;6287;50.984;7.022;2022-08-25T16:14:07;36.50;37.10
12446;DHT22;6287;50.984;7.022;2022-08-25T16:16:33;36.30;37.20
12446;DHT22;6287;50.984;7.022;2022-08-25T16:19:02;36.30;37.10
12446;DHT22;6287;50.984;7.022;2022-08-25T16:21:35;36.10;37.70
12446;DHT22;6287;50.984;7.022;2022-08-25T16:24:04;36.00;39.00
12446;DHT22;6287;50.984;7.022;2022-08-25T16:26:36;35.90;37.70
12446;DHT22;6287;50.984;7.022;2022-08-25T16:29:07;35.70;38.00
12446;DHT22;6287;50.984;7.022;2022-08-25T16:31:39;35.60;37.70
12446;DHT22;6287;50.984;7.022;2022-08-25T16:34:05;35.20;36.90
12446;DHT22;6287;50.984;7.022;2022-08-25T16:36:33;34.90;37.20
12446;DHT22;6287;50.984;7.022;2022-08-25T16:38:58;34.80;38.60
12446;DHT22;6287;50.984;7.022;2022-08-25T16:41:30;34.80;38.60
12446;DHT22;6287;50.984;7.022;2022-08-25T16:44:03;34.80;38.50
12446;DHT22;6287;50.984;7.022;2022-08-25T16:46:32;34.80;39.10
12446;DHT22;6287;50.984;7.022;2022-08-25T16:49:03;34.80;38.70
12446;DHT22;6287;50.984;7.022;2022-08-25T16:51:31;34.70;38.70
12446;DHT22;6287;50.984;7.022;2022-08-25T16:53:59;34.80;38.80
12446;DHT22;6287;50.984;7.022;2022-08-25T16:56:45;34.70;39.20
12446;DHT22;6287;50.984;7.022;2022-08-25T16:59:14;34.70;39.20
12446;DHT22;6287;50.984;7.022;2022-08-25T17:01:42;34.70;39.80
12446;DHT22;6287;50.984;7.022;2022-08-25T17:04:09;34.60;39.50
12446;DHT22;6287;50.984;7.022;2022-08-25T17:06:40;34.50;38.50
12446;DHT22;6287;50.984;7.022;2022-08-25T17:09:08;34.40;39.90
12446;DHT22;6287;50.984;7.022;2022-08-25T17:11:55;34.20;39.90
12446;DHT22;6287;50.984;7.022;2022-08-25T17:14:23;34.00;40.70
12446;DHT22;6287;50.984;7.022;2022-08-25T17:16:53;33.80;40.20
12446;DHT22;6287;50.984;7.022;2022-08-25T17:19:24;33.60;40.90
12446;DHT22;6287;50.984;7.022;2022-08-25T17:21:53;33.50;40.80
12446;DHT22;6287;50.984;7.022;2022-08-25T17:24:22;33.30;40.40
12446;DHT22;6287;50.984;7.022;2022-08-25T17:26:48;33.10;41.10
12446;DHT22;6287;50.984;7.022;2022-08-25T17:29:16;32.90;42.20
12446;DHT22;6287;50.984;7.022;2022-08-25T17:31:42;32.90;42.80
12446;DHT22;6287;50.984;7.022;2022-08-25T17:34:13;32.70;41.40
12446;DHT22;6287;50.984;7.022;2022-08-25T17:36:39;32.70;43.80
12446;DHT22;6287;50.984;7.022;2022-08-25T17:39:08;32.50;43.00
12446;DHT22;6287;50.984;7.022;2022-08-25T17:41:34;32.40;44.10
12446;DHT22;6287;50.984;7.022;2022-08-25T17:44:00;32.20;43.80
12446;DHT22;6287;50.984;7.022;2022-08-25T17:46:27;32.20;43.50
12446;DHT22;6287;50.984;7.022;2022-08-25T17:48:52;32.10;45.00
12446;DHT22;6287;50.984;7.022;2022-08-25T17:51:19;32.00;44.50
12446;DHT22;6287;50.984;7.022;2022-08-25T17:53:47;31.80;46.00
12446;DHT22;6287;50.984;7.022;2022-08-25T17:56:16;31.70;46.80
12446;DHT22;6287;50.984;7.022;2022-08-25T17:58:42;31.50;46.70
12446;DHT22;6287;50.984;7.022;2022-08-25T18:01:20;31.40;46.00
12446;DHT22;6287;50.984;7.022;2022-08-25T18:03:46;31.30;47.60
12446;DHT22;6287;50.984;7.022;2022-08-25T18:06:14;31.20;47.40
12446;DHT22;6287;50.984;7.022;2022-08-25T18:08:41;31.10;47.90